createdAt,value
2018-12-09T00:01:34.222Z,11.60
2018-12-09T00:04:01.803Z,11.50
2018-12-09T00:06:35.620Z,11.50
2018-12-09T00:09:05.137Z,11.50
2018-12-09T00:11:33.136Z,11.50
2018-12-09T00:14:00.999Z,11.50
2018-12-09T00:16:28.650Z,11.50
2018-12-09T00:18:56.315Z,11.50
2018-12-09T00:21:23.890Z,11.50
2018-12-09T00:23:51.540Z,11.50
2018-12-09T00:26:19.149Z,11.50
2018-12-09T00:28:46.760Z,11.50
2018-12-09T00:31:14.474Z,11.50
2018-12-09T00:33:42.569Z,11.50
2018-12-09T00:36:10.221Z,11.50
2018-12-09T00:38:37.800Z,11.50
2018-12-09T00:41:05.353Z,11.50
2018-12-09T00:43:32.924Z,11.50
2018-12-09T00:46:00.555Z,11.50
2018-12-09T00:48:28.249Z,11.50
2018-12-09T00:50:55.989Z,11.50
2018-12-09T00:53:23.723Z,11.50
2018-12-09T00:55:51.323Z,11.50
2018-12-09T00:58:18.890Z,11.60
2018-12-09T01:00:46.506Z,11.50
2018-12-09T01:03:14.390Z,11.50
2018-12-09T01:05:42.071Z,11.50
2018-12-09T01:08:09.644Z,11.50
2018-12-09T01:10:37.325Z,11.50
2018-12-09T01:13:05.158Z,11.50
2018-12-09T01:15:32.808Z,11.50
2018-12-09T01:18:00.456Z,11.50
2018-12-09T01:20:28.108Z,11.50
2018-12-09T01:22:55.710Z,11.50
2018-12-09T01:25:23.388Z,11.40
2018-12-09T01:27:50.942Z,11.40
2018-12-09T01:30:18.564Z,11.40
2018-12-09T01:32:46.299Z,11.40
2018-12-09T01:35:13.918Z,11.40
2018-12-09T01:37:41.585Z,11.40
2018-12-09T01:40:09.220Z,11.40
2018-12-09T01:42:36.836Z,11.40
2018-12-09T01:45:04.860Z,11.40
2018-12-09T01:47:32.470Z,11.30
2018-12-09T01:50:00.309Z,11.30
2018-12-09T01:52:27.951Z,11.30
2018-12-09T01:54:55.610Z,11.40
2018-12-09T01:57:23.272Z,11.30
2018-12-09T01:59:51.397Z,11.30
2018-12-09T02:02:18.989Z,11.20
2018-12-09T02:04:46.641Z,11.20
2018-12-09T02:07:15.727Z,11.20
2018-12-09T02:09:43.691Z,11.20
2018-12-09T02:12:11.553Z,11.10
2018-12-09T02:14:39.744Z,11.10
2018-12-09T02:17:07.907Z,11.00
2018-12-09T02:19:36.365Z,11.10
2018-12-09T02:22:05.998Z,11.00
2018-12-09T02:24:34.103Z,11.00
2018-12-09T02:27:02.032Z,10.90
2018-12-09T02:29:30.009Z,10.80
2018-12-09T02:31:58.036Z,10.90
2018-12-09T02:34:25.944Z,10.80
2018-12-09T02:36:54.036Z,10.70
2018-12-09T02:39:21.869Z,10.60
2018-12-09T02:41:49.861Z,10.50
2018-12-09T02:44:17.908Z,10.20
2018-12-09T02:46:45.722Z,10.40
2018-12-09T02:49:13.909Z,10.40
2018-12-09T02:51:41.954Z,10.30
2018-12-09T02:54:10.174Z,10.20
2018-12-09T02:56:38.692Z,10.20
2018-12-09T02:59:06.864Z,10.20
2018-12-09T03:01:34.755Z,10.20
2018-12-09T03:04:02.545Z,10.30
2018-12-09T03:06:30.255Z,10.30
2018-12-09T03:08:58.002Z,10.30
2018-12-09T03:11:25.627Z,10.30
2018-12-09T03:13:53.213Z,10.40
2018-12-09T03:16:21.257Z,10.40
2018-12-09T03:18:48.868Z,10.40
2018-12-09T03:21:16.497Z,10.40
2018-12-09T03:23:44.211Z,10.50
2018-12-09T03:26:11.853Z,10.50
2018-12-09T03:28:39.789Z,10.50
2018-12-09T03:31:07.395Z,10.50
2018-12-09T03:33:35.124Z,10.40
2018-12-09T03:36:02.785Z,10.40
2018-12-09T03:38:30.424Z,10.40
2018-12-09T03:40:58.061Z,10.40
2018-12-09T03:43:26.303Z,10.40
2018-12-09T03:45:53.927Z,10.40
2018-12-09T03:48:22.048Z,10.40
2018-12-09T03:50:50.687Z,10.40
2018-12-09T03:53:18.305Z,10.40
2018-12-09T03:55:46.348Z,10.40
2018-12-09T03:58:14.009Z,10.40
2018-12-09T04:00:41.552Z,10.40
2018-12-09T04:03:09.204Z,10.40
2018-12-09T04:05:36.884Z,10.40
2018-12-09T04:08:04.982Z,10.40
2018-12-09T04:10:32.601Z,10.40
2018-12-09T04:13:00.200Z,10.40
2018-12-09T04:15:27.914Z,10.40
2018-12-09T04:17:55.541Z,10.40
2018-12-09T04:20:23.614Z,10.30
2018-12-09T04:22:51.164Z,10.30
2018-12-09T04:25:18.745Z,10.30
2018-12-09T04:27:46.407Z,10.20
2018-12-09T04:30:14.060Z,10.10
2018-12-09T04:32:41.999Z,10.10
2018-12-09T04:35:09.750Z,10.10
2018-12-09T04:37:38.069Z,10.10
2018-12-09T04:40:06.243Z,10.10
2018-12-09T04:42:34.208Z,10.10
2018-12-09T04:45:02.410Z,10.10
2018-12-09T04:47:30.160Z,10.10
2018-12-09T04:49:57.895Z,10.10
2018-12-09T04:52:25.599Z,10.10
2018-12-09T04:54:53.257Z,10.10
2018-12-09T04:57:20.789Z,10.10
2018-12-09T04:59:48.631Z,10.10
2018-12-09T05:02:16.283Z,10.10
2018-12-09T05:04:44.289Z,10.10
2018-12-09T05:07:11.892Z,10.00
2018-12-09T05:09:39.568Z,10.10
2018-12-09T05:12:07.116Z,10.10
2018-12-09T05:14:34.976Z,10.10
2018-12-09T05:17:03.177Z,10.10
2018-12-09T05:19:31.523Z,10.10
2018-12-09T05:21:59.598Z,10.10
2018-12-09T05:24:27.650Z,10.20
2018-12-09T05:26:55.696Z,10.20
2018-12-09T05:29:26.670Z,10.20
2018-12-09T05:31:54.704Z,10.20
2018-12-09T05:34:22.627Z,10.20
2018-12-09T05:36:50.385Z,10.20
2018-12-09T05:39:18.469Z,10.30
2018-12-09T05:41:46.032Z,10.30
2018-12-09T05:44:13.817Z,10.20
2018-12-09T05:46:41.921Z,10.20
2018-12-09T05:49:09.865Z,10.10
2018-12-09T05:51:37.665Z,10.10
2018-12-09T05:54:05.321Z,10.00
2018-12-09T05:56:32.950Z,10.00
2018-12-09T05:59:00.562Z,9.90
2018-12-09T06:01:28.243Z,9.90
2018-12-09T06:03:55.960Z,9.90
2018-12-09T06:06:23.773Z,9.90
2018-12-09T06:08:51.550Z,10.00
2018-12-09T06:11:19.282Z,10.00
2018-12-09T06:13:46.906Z,10.10
2018-12-09T06:16:14.479Z,10.10
2018-12-09T06:18:42.295Z,10.10
2018-12-09T06:21:10.789Z,10.20
2018-12-09T06:23:38.421Z,10.10
2018-12-09T06:26:06.090Z,10.10
2018-12-09T06:28:34.114Z,10.20
2018-12-09T06:31:01.723Z,10.20
2018-12-09T06:33:29.986Z,10.20
2018-12-09T06:35:57.687Z,10.20
2018-12-09T06:38:25.309Z,10.30
2018-12-09T06:40:53.116Z,10.30
2018-12-09T06:43:20.713Z,10.30
2018-12-09T06:45:49.395Z,10.30
2018-12-09T06:48:17.160Z,9.90
2018-12-09T06:50:45.102Z,10.40
2018-12-09T06:53:12.845Z,10.40
2018-12-09T06:55:40.735Z,10.30
2018-12-09T06:58:08.642Z,10.30
2018-12-09T07:00:37.299Z,10.30
2018-12-09T07:03:05.282Z,10.30
2018-12-09T07:05:33.089Z,10.30
2018-12-09T07:08:00.844Z,10.30
2018-12-09T07:10:28.683Z,10.30
2018-12-09T07:12:57.003Z,10.30
2018-12-09T07:15:24.802Z,10.30
2018-12-09T07:17:53.720Z,10.40
2018-12-09T07:20:21.517Z,10.40
2018-12-09T07:25:45.723Z,10.40
2018-12-09T07:28:13.603Z,10.40
2018-12-09T07:30:41.289Z,10.40
2018-12-09T07:33:09.228Z,10.30
2018-12-09T07:35:36.930Z,10.40
2018-12-09T07:38:04.933Z,10.30
2018-12-09T07:40:32.708Z,10.30
2018-12-09T07:43:00.633Z,10.40
2018-12-09T07:45:28.477Z,10.40
2018-12-09T07:47:56.244Z,10.40
2018-12-09T07:50:24.002Z,10.60
2018-12-09T07:52:51.707Z,10.40
2018-12-09T07:55:19.593Z,10.40
2018-12-09T07:57:47.570Z,10.40
2018-12-09T08:00:15.397Z,10.40
2018-12-09T08:02:43.181Z,10.40
2018-12-09T08:05:10.956Z,10.40
2018-12-09T08:07:38.661Z,10.40
2018-12-09T08:10:10.518Z,10.40
2018-12-09T08:12:38.381Z,10.50
2018-12-09T08:15:06.431Z,10.60
2018-12-09T08:17:35.420Z,10.50
2018-12-09T08:20:03.521Z,10.50
2018-12-09T08:22:32.376Z,10.50
2018-12-09T08:25:00.028Z,10.50
2018-12-09T08:27:29.256Z,10.50
2018-12-09T08:29:57.295Z,10.50
2018-12-09T08:32:25.005Z,10.50
2018-12-09T08:34:53.698Z,10.60
2018-12-09T08:37:21.566Z,10.60
2018-12-09T08:39:52.981Z,10.50
2018-12-09T08:42:20.793Z,10.60
2018-12-09T08:44:48.408Z,10.60
2018-12-09T08:47:21.778Z,10.60
2018-12-09T08:49:49.493Z,10.60
2018-12-09T08:52:17.853Z,10.60
2018-12-09T08:54:45.696Z,10.60
2018-12-09T08:57:14.588Z,10.60
2018-12-09T08:59:42.662Z,10.60
2018-12-09T09:02:11.530Z,10.60
2018-12-09T09:04:41.463Z,10.60
2018-12-09T09:07:09.238Z,10.60
2018-12-09T09:09:37.096Z,10.60
2018-12-09T09:12:08.278Z,10.60
2018-12-09T09:14:35.998Z,10.60
2018-12-09T09:17:04.236Z,10.70
2018-12-09T09:19:32.067Z,10.70
2018-12-09T09:21:59.774Z,10.70
2018-12-09T09:24:27.374Z,10.70
2018-12-09T09:26:55.094Z,10.70
2018-12-09T09:29:22.726Z,10.70
2018-12-09T09:31:50.438Z,10.70
2018-12-09T09:34:22.849Z,10.70
2018-12-09T09:36:50.550Z,10.70
2018-12-09T09:39:19.407Z,10.70
2018-12-09T09:41:47.196Z,10.70
2018-12-09T09:44:15.053Z,10.70
2018-12-09T09:46:43.834Z,10.70
2018-12-09T09:49:11.502Z,10.70
2018-12-09T09:51:39.376Z,10.70
2018-12-09T09:54:07.047Z,10.70
2018-12-09T09:56:35.509Z,10.60
2018-12-09T09:59:07.743Z,10.70
2018-12-09T10:01:35.630Z,10.60
2018-12-09T10:04:05.344Z,10.60
2018-12-09T10:06:32.969Z,10.60
2018-12-09T10:09:00.753Z,10.70
2018-12-09T10:11:28.609Z,10.70
2018-12-09T10:13:56.572Z,10.70
2018-12-09T10:16:24.436Z,10.60
2018-12-09T10:18:52.247Z,10.60
2018-12-09T10:21:19.957Z,10.60
2018-12-09T10:23:47.837Z,10.40
2018-12-09T10:26:15.472Z,10.60
2018-12-09T10:28:43.182Z,10.60
2018-12-09T10:31:11.095Z,10.60
2018-12-09T10:33:38.949Z,10.60
2018-12-09T10:36:06.957Z,10.60
2018-12-09T10:38:34.768Z,10.60
2018-12-09T10:41:02.598Z,10.60
2018-12-09T10:43:30.582Z,10.60
2018-12-09T10:45:58.428Z,10.60
2018-12-09T10:48:26.173Z,10.60
2018-12-09T10:50:55.059Z,10.60
2018-12-09T10:53:22.755Z,10.50
2018-12-09T10:55:50.591Z,10.50
2018-12-09T10:58:18.369Z,10.50
2018-12-09T11:00:51.257Z,10.50
2018-12-09T11:03:19.262Z,10.50
2018-12-09T11:05:48.267Z,10.50
2018-12-09T11:08:16.758Z,10.50
2018-12-09T11:10:45.628Z,10.60
2018-12-09T11:13:17.259Z,10.60
2018-12-09T11:15:44.937Z,10.60
2018-12-09T11:18:15.023Z,10.60
2018-12-09T11:20:42.826Z,10.60
2018-12-09T11:23:10.486Z,10.60
2018-12-09T11:25:38.346Z,10.70
2018-12-09T11:28:06.088Z,10.60
2018-12-09T11:30:33.896Z,10.60
2018-12-09T11:33:01.707Z,10.60
2018-12-09T11:35:29.455Z,10.60
2018-12-09T11:37:57.105Z,10.60
2018-12-09T11:40:24.702Z,10.70
2018-12-09T11:42:52.486Z,10.70
2018-12-09T11:45:20.259Z,10.60
2018-12-09T11:47:48.064Z,10.50
2018-12-09T11:50:15.762Z,10.40
2018-12-09T11:52:43.618Z,10.30
2018-12-09T11:55:11.337Z,10.20
2018-12-09T11:57:39.215Z,10.10
2018-12-09T12:00:10.904Z,9.90
2018-12-09T12:02:38.950Z,9.70
2018-12-09T12:05:07.295Z,9.70
2018-12-09T12:07:35.296Z,9.60
2018-12-09T12:10:04.059Z,9.60
2018-12-09T12:12:32.090Z,9.60
2018-12-09T12:15:00.046Z,9.60
2018-12-09T12:17:28.073Z,9.60
2018-12-09T12:19:55.705Z,9.60
2018-12-09T12:22:23.330Z,9.60
2018-12-09T12:24:51.208Z,9.60
2018-12-09T12:27:19.135Z,9.60
2018-12-09T12:29:47.693Z,9.60
2018-12-09T12:32:25.938Z,9.60
2018-12-09T12:34:53.874Z,9.70
2018-12-09T12:37:21.802Z,9.60
2018-12-09T12:39:49.665Z,9.60
2018-12-09T12:42:17.524Z,9.60
2018-12-09T12:44:45.459Z,9.60
2018-12-09T12:47:13.524Z,9.70
2018-12-09T12:49:41.474Z,9.60
2018-12-09T12:52:09.243Z,9.60
2018-12-09T12:54:37.230Z,9.60
2018-12-09T12:57:05.155Z,9.50
2018-12-09T12:59:32.812Z,9.60
2018-12-09T13:02:00.699Z,9.60
2018-12-09T13:04:28.465Z,9.60
2018-12-09T13:06:56.144Z,9.70
2018-12-09T13:09:23.791Z,9.70
2018-12-09T13:11:51.767Z,9.80
2018-12-09T13:14:20.505Z,9.70
2018-12-09T13:16:48.486Z,9.70
2018-12-09T13:19:16.256Z,9.80
2018-12-09T13:21:43.911Z,9.80
2018-12-09T13:24:11.787Z,9.80
2018-12-09T13:26:39.671Z,9.80
2018-12-09T13:29:08.087Z,9.80
2018-12-09T13:31:36.867Z,9.80
2018-12-09T13:34:05.295Z,9.80
2018-12-09T13:36:33.039Z,9.80
2018-12-09T13:39:01.023Z,9.80
2018-12-09T13:41:29.539Z,9.80
2018-12-09T13:43:58.646Z,9.80
2018-12-09T13:46:26.976Z,9.80
2018-12-09T13:48:54.635Z,9.80
2018-12-09T13:51:22.719Z,9.90
2018-12-09T13:53:51.975Z,9.80
2018-12-09T13:56:20.411Z,9.80
2018-12-09T13:58:49.112Z,9.80
2018-12-09T14:01:16.834Z,9.90
2018-12-09T14:03:45.279Z,9.80
2018-12-09T14:06:13.860Z,9.90
2018-12-09T14:08:42.189Z,9.90
2018-12-09T14:11:09.920Z,9.90
2018-12-09T14:13:37.610Z,9.90
2018-12-09T14:16:07.788Z,9.90
2018-12-09T14:18:35.509Z,9.90
2018-12-09T14:21:03.893Z,9.90
2018-12-09T14:23:31.783Z,10.00
2018-12-09T14:26:00.874Z,10.00
2018-12-09T14:28:29.339Z,10.00
2018-12-09T14:30:57.249Z,10.00
2018-12-09T14:33:27.567Z,10.10
2018-12-09T14:35:55.863Z,10.00
2018-12-09T14:38:25.022Z,10.00
2018-12-09T14:40:53.226Z,10.10
2018-12-09T14:43:20.942Z,10.10
2018-12-09T14:45:49.651Z,10.20
2018-12-09T14:48:17.598Z,10.20
2018-12-09T14:50:47.315Z,10.20
2018-12-09T14:53:15.903Z,10.20
2018-12-09T14:55:44.582Z,10.10
2018-12-09T14:58:14.369Z,10.10
2018-12-09T15:00:42.642Z,10.10
2018-12-09T15:03:10.932Z,10.10
2018-12-09T15:05:38.898Z,10.00
2018-12-09T15:08:06.823Z,10.00
2018-12-09T15:10:36.914Z,10.00
2018-12-09T15:13:06.541Z,9.80
2018-12-09T15:15:35.180Z,10.10
2018-12-09T15:18:03.967Z,10.00
2018-12-09T15:20:33.577Z,10.00
2018-12-09T15:23:01.538Z,10.00
2018-12-09T15:25:31.177Z,10.00
2018-12-09T15:27:59.413Z,9.90
2018-12-09T15:30:27.151Z,9.90
2018-12-09T15:32:55.479Z,9.90
2018-12-09T15:35:23.155Z,9.90
2018-12-09T15:37:51.825Z,9.90
2018-12-09T15:40:21.607Z,9.90
2018-12-09T15:42:51.224Z,9.90
2018-12-09T15:45:26.712Z,9.90
2018-12-09T15:47:55.089Z,9.90
2018-12-09T15:50:23.666Z,9.80
2018-12-09T15:52:51.606Z,9.80
2018-12-09T15:55:20.170Z,9.80
2018-12-09T15:57:48.248Z,9.70
2018-12-09T16:00:16.516Z,9.70
2018-12-09T16:02:44.289Z,9.70
2018-12-09T16:05:12.421Z,9.60
2018-12-09T16:07:40.269Z,9.60
2018-12-09T16:10:10.639Z,9.60
2018-12-09T16:12:38.591Z,9.60
2018-12-09T16:15:06.675Z,9.60
2018-12-09T16:17:34.631Z,9.60
2018-12-09T16:20:03.589Z,9.60
2018-12-09T16:22:31.242Z,9.60
2018-12-09T16:24:58.872Z,9.60
2018-12-09T16:27:27.756Z,9.60
2018-12-09T16:29:56.219Z,9.50
2018-12-09T16:32:23.958Z,9.50
2018-12-09T16:34:51.610Z,9.40
2018-12-09T16:37:19.690Z,9.40
2018-12-09T16:39:47.433Z,9.40
2018-12-09T16:42:15.137Z,9.40
2018-12-09T16:44:42.824Z,9.40
2018-12-09T16:47:10.512Z,9.50
2018-12-09T16:49:38.106Z,9.40
2018-12-09T16:52:05.730Z,9.40
2018-12-09T16:54:33.463Z,9.40
2018-12-09T16:57:01.187Z,9.40
2018-12-09T16:59:28.827Z,9.40
2018-12-09T17:01:56.380Z,9.40
2018-12-09T17:04:25.409Z,9.40
2018-12-09T17:06:53.200Z,9.40
2018-12-09T17:09:21.304Z,9.40
2018-12-09T17:11:50.045Z,9.50
2018-12-09T17:14:17.808Z,9.40
2018-12-09T17:16:45.917Z,9.40
2018-12-09T17:19:15.095Z,9.40
2018-12-09T17:21:42.938Z,9.10
2018-12-09T17:24:11.548Z,9.40
2018-12-09T17:26:39.662Z,9.30
2018-12-09T17:29:08.132Z,9.30
2018-12-09T17:31:36.005Z,9.30
2018-12-09T17:34:04.713Z,9.30
2018-12-09T17:36:32.625Z,9.30
2018-12-09T17:39:00.818Z,9.30
2018-12-09T17:41:29.680Z,9.30
2018-12-09T17:43:57.542Z,9.20
2018-12-09T17:46:25.610Z,9.10
2018-12-09T17:48:53.349Z,9.20
2018-12-09T17:51:21.318Z,9.20
2018-12-09T17:53:49.188Z,9.20
2018-12-09T17:56:17.003Z,9.20
2018-12-09T17:58:44.724Z,9.20
2018-12-09T18:01:17.874Z,9.20
2018-12-09T18:03:46.212Z,9.30
2018-12-09T18:06:16.151Z,9.30
2018-12-09T18:08:43.966Z,9.20
2018-12-09T18:11:12.826Z,9.20
2018-12-09T18:13:40.544Z,9.20
2018-12-09T18:16:08.143Z,9.20
2018-12-09T18:18:36.307Z,9.20
2018-12-09T18:21:04.035Z,9.20
2018-12-09T18:23:31.742Z,9.20
2018-12-09T18:25:59.677Z,9.10
2018-12-09T18:28:27.452Z,9.10
2018-12-09T18:30:57.872Z,9.10
2018-12-09T18:33:25.952Z,9.10
2018-12-09T18:35:55.340Z,9.00
2018-12-09T18:38:22.949Z,9.00
2018-12-09T18:40:50.710Z,9.10
2018-12-09T18:43:18.376Z,9.10
2018-12-09T18:45:47.323Z,9.10
2018-12-09T18:48:15.139Z,9.10
2018-12-09T18:50:43.312Z,9.10
2018-12-09T18:53:11.342Z,9.10
2018-12-09T18:55:39.112Z,9.10
2018-12-09T18:58:07.004Z,9.10
2018-12-09T19:00:35.342Z,9.10
2018-12-09T19:06:01.379Z,9.10
2018-12-09T19:08:29.586Z,9.20
2018-12-09T19:10:57.382Z,9.10
2018-12-09T19:13:26.225Z,9.10
2018-12-09T19:15:53.810Z,9.20
2018-12-09T19:18:22.725Z,9.20
2018-12-09T19:20:50.445Z,9.10
2018-12-09T19:23:18.233Z,9.20
2018-12-09T19:25:46.140Z,9.20
2018-12-09T19:28:14.246Z,9.20
2018-12-09T19:30:48.132Z,9.20
2018-12-09T19:33:12.476Z,9.20
2018-12-09T19:35:40.244Z,9.10
2018-12-09T19:38:08.243Z,9.10
2018-12-09T19:40:36.030Z,9.10
2018-12-09T19:43:03.728Z,9.10
2018-12-09T19:45:31.844Z,9.10
2018-12-09T19:47:59.686Z,9.20
2018-12-09T19:50:27.324Z,9.20
2018-12-09T19:52:55.260Z,9.20
2018-12-09T19:55:22.951Z,9.30
2018-12-09T19:57:51.633Z,9.20
2018-12-09T20:00:20.017Z,9.20
2018-12-09T20:02:49.018Z,9.20
2018-12-09T20:05:17.084Z,9.20
2018-12-09T20:07:44.807Z,9.10
2018-12-09T20:10:12.623Z,9.10
2018-12-09T20:12:40.626Z,9.10
2018-12-09T20:15:08.648Z,9.10
2018-12-09T20:17:37.516Z,9.10
2018-12-09T20:20:06.708Z,9.10
2018-12-09T20:22:34.703Z,9.10
2018-12-09T20:25:02.516Z,9.10
2018-12-09T20:27:30.798Z,9.00
2018-12-09T20:29:59.204Z,8.90
2018-12-09T20:32:35.045Z,8.90
2018-12-09T20:34:57.897Z,8.90
2018-12-09T20:37:25.771Z,8.90
2018-12-09T20:39:53.546Z,8.90
2018-12-09T20:42:23.541Z,8.90
2018-12-09T20:44:51.218Z,8.90
2018-12-09T20:47:20.685Z,8.90
2018-12-09T20:49:48.474Z,8.90
2018-12-09T20:52:16.107Z,8.90
2018-12-09T20:54:43.680Z,9.00
2018-12-09T20:57:11.383Z,9.00
2018-12-09T20:59:39.233Z,9.00
2018-12-09T21:02:07.425Z,9.00
2018-12-09T21:04:37.164Z,9.10
2018-12-09T21:07:11.505Z,9.00
2018-12-09T21:09:39.312Z,9.10
2018-12-09T21:12:07.124Z,9.00
2018-12-09T21:14:34.790Z,9.00
2018-12-09T21:17:02.634Z,9.00
2018-12-09T21:19:31.454Z,9.00
2018-12-09T21:21:59.191Z,9.00
2018-12-09T21:24:31.176Z,9.00
2018-12-09T21:26:58.838Z,9.00
2018-12-09T21:29:26.501Z,9.00
2018-12-09T21:31:54.168Z,9.00
2018-12-09T21:34:22.976Z,9.00
2018-12-09T21:36:50.563Z,9.00
2018-12-09T21:39:18.149Z,9.00
2018-12-09T21:41:47.936Z,9.00
2018-12-09T21:44:15.869Z,9.00
2018-12-09T21:46:47.364Z,9.00
2018-12-09T21:49:15.806Z,9.00
2018-12-09T21:51:43.688Z,9.00
2018-12-09T21:54:11.515Z,9.00
2018-12-09T21:56:39.491Z,9.10
2018-12-09T21:59:07.201Z,9.00
2018-12-09T22:01:35.008Z,9.00
2018-12-09T22:04:03.488Z,9.00
2018-12-09T22:06:31.256Z,9.00
2018-12-09T22:08:58.863Z,9.00
2018-12-09T22:11:26.495Z,9.00
2018-12-09T22:13:54.288Z,8.90
2018-12-09T22:16:22.087Z,8.90
2018-12-09T22:18:49.812Z,9.00
2018-12-09T22:21:17.580Z,9.00
2018-12-09T22:23:45.267Z,9.00
2018-12-09T22:26:13.181Z,9.00
2018-12-09T22:28:40.977Z,9.00
2018-12-09T22:31:08.605Z,9.00
2018-12-09T22:33:36.558Z,9.00
2018-12-09T22:36:04.704Z,9.00
2018-12-09T22:38:33.478Z,8.90
2018-12-09T22:41:01.106Z,8.90
2018-12-09T22:43:28.869Z,8.90
2018-12-09T22:45:56.761Z,8.80
2018-12-09T22:48:24.528Z,8.80
2018-12-09T22:50:52.330Z,8.80
2018-12-09T22:53:19.972Z,8.70
2018-12-09T22:55:47.873Z,8.80
2018-12-09T22:58:15.736Z,8.80
2018-12-09T23:00:50.813Z,8.80
2018-12-09T23:03:19.711Z,8.80
2018-12-09T23:05:47.342Z,8.80
2018-12-09T23:08:15.208Z,8.70
2018-12-09T23:10:43.039Z,8.80
2018-12-09T23:13:11.061Z,8.70
2018-12-09T23:15:38.699Z,8.70
2018-12-09T23:18:06.361Z,8.70
2018-12-09T23:20:34.083Z,8.70
2018-12-09T23:23:01.709Z,8.60
2018-12-09T23:25:29.359Z,8.60
2018-12-09T23:27:56.891Z,8.50
2018-12-09T23:30:24.553Z,8.50
2018-12-09T23:32:52.243Z,8.50
2018-12-09T23:35:20.139Z,8.50
2018-12-09T23:37:48.381Z,8.50
2018-12-09T23:40:15.989Z,8.60
2018-12-09T23:42:43.583Z,8.60
2018-12-09T23:45:11.234Z,8.60
2018-12-09T23:47:38.986Z,8.60
2018-12-09T23:50:06.624Z,8.60
2018-12-09T23:52:34.404Z,8.50
2018-12-09T23:55:02.185Z,8.60
2018-12-09T23:57:32.818Z,8.60
